createdAt,value
2016-11-09T00:00:43.524Z,99.57
2016-11-09T00:05:39.805Z,99.99
2016-11-09T00:10:38.565Z,99.29
2016-11-09T00:15:34.566Z,99.99
2016-11-09T00:20:32.042Z,99.66
2016-11-09T00:25:28.902Z,99.95
2016-11-09T00:30:25.844Z,99.66
2016-11-09T00:35:21.987Z,99.99
2016-11-09T00:40:18.103Z,99.99
2016-11-09T00:45:14.512Z,99.99
2016-11-09T00:50:13.104Z,99.99
2016-11-09T00:55:08.863Z,99.99
2016-11-09T01:00:05.243Z,99.99
2016-11-09T01:05:01.942Z,99.99
2016-11-09T01:09:57.963Z,99.99
2016-11-09T01:14:54.423Z,99.29
2016-11-09T01:19:50.942Z,99.29
2016-11-09T01:24:47.682Z,99.29
2016-11-09T01:29:44.388Z,99.48
2016-11-09T01:34:40.380Z,99.48
2016-11-09T01:39:36.903Z,99.76
2016-11-09T01:44:33.287Z,99.52
2016-11-09T01:49:29.659Z,98.77
2016-11-09T01:54:26.145Z,98.96
2016-11-09T01:59:22.419Z,98.58
2016-11-09T02:04:18.851Z,98.68
2016-11-09T02:09:15.345Z,98.20
2016-11-09T02:14:11.762Z,98.34
2016-11-09T02:19:08.058Z,99.29
2016-11-09T02:24:04.456Z,99.99
2016-11-09T02:29:00.735Z,99.99
2016-11-09T02:33:56.978Z,99.99
2016-11-09T02:38:53.296Z,99.99
2016-11-09T02:43:49.891Z,99.99
2016-11-09T02:48:46.111Z,99.99
2016-11-09T02:53:42.386Z,99.99
2016-11-09T02:58:38.554Z,99.99
2016-11-09T03:03:34.693Z,99.99
2016-11-09T03:08:31.130Z,99.99
2016-11-09T03:13:27.375Z,99.99
2016-11-09T03:18:24.033Z,99.99
2016-11-09T03:23:20.389Z,99.99
2016-11-09T03:28:17.794Z,99.99
2016-11-09T03:33:13.903Z,99.99
2016-11-09T03:38:10.530Z,99.99
2016-11-09T03:43:07.771Z,99.99
2016-11-09T03:48:04.029Z,99.99
2016-11-09T03:53:00.519Z,99.99
2016-11-09T03:57:57.813Z,99.99
2016-11-09T04:02:53.938Z,99.99
2016-11-09T04:07:50.528Z,99.99
2016-11-09T04:12:46.828Z,99.99
2016-11-09T04:17:43.025Z,99.99
2016-11-09T04:22:39.368Z,99.99
2016-11-09T04:27:35.666Z,99.99
2016-11-09T04:32:32.068Z,99.99
2016-11-09T04:37:30.686Z,99.99
2016-11-09T04:42:26.362Z,99.99
2016-11-09T04:47:22.685Z,99.99
2016-11-09T04:52:18.992Z,99.99
2016-11-09T04:57:15.364Z,99.99
2016-11-09T05:02:12.321Z,99.99
2016-11-09T05:07:08.694Z,99.99
2016-11-09T05:12:05.624Z,99.99
2016-11-09T05:17:02.942Z,99.99
2016-11-09T05:21:59.061Z,99.99
2016-11-09T05:26:55.939Z,99.99
2016-11-09T05:31:52.273Z,99.99
2016-11-09T05:36:48.002Z,99.99
2016-11-09T05:41:44.440Z,99.99
2016-11-09T05:46:40.711Z,99.99
2016-11-09T05:51:37.020Z,99.99
2016-11-09T05:56:34.340Z,99.99
2016-11-09T06:01:30.908Z,99.99
2016-11-09T06:06:27.898Z,99.99
2016-11-09T06:11:24.378Z,99.99
2016-11-09T06:16:21.803Z,99.99
2016-11-09T06:21:17.956Z,99.99
2016-11-09T06:26:15.037Z,99.99
2016-11-09T06:31:11.376Z,99.99
2016-11-09T06:36:07.795Z,99.99
2016-11-09T06:41:04.408Z,99.99
2016-11-09T06:46:00.930Z,99.99
2016-11-09T06:50:57.414Z,99.99
2016-11-09T06:55:53.759Z,99.99
2016-11-09T07:00:50.187Z,99.99
2016-11-09T07:05:46.827Z,99.99
2016-11-09T07:10:42.962Z,99.99
2016-11-09T07:15:39.371Z,99.99
2016-11-09T07:20:35.946Z,99.99
2016-11-09T07:25:32.489Z,99.99
2016-11-09T07:30:29.493Z,99.99
2016-11-09T07:35:25.932Z,99.99
2016-11-09T07:40:23.017Z,99.99
2016-11-09T07:45:19.727Z,99.99
2016-11-09T07:50:16.075Z,99.99
2016-11-09T07:55:11.842Z,99.99
2016-11-09T08:00:08.486Z,99.99
2016-11-09T08:05:05.144Z,99.99
2016-11-09T08:10:01.441Z,99.99
2016-11-09T08:14:58.142Z,99.66
2016-11-09T08:19:54.722Z,98.82
2016-11-09T08:24:51.271Z,98.77
2016-11-09T08:29:47.661Z,98.58
2016-11-09T08:34:45.905Z,98.20
2016-11-09T08:39:42.560Z,97.44
2016-11-09T08:44:39.442Z,97.92
2016-11-09T08:49:35.618Z,96.78
2016-11-09T08:54:31.983Z,97.73
2016-11-09T08:59:29.073Z,97.25
2016-11-09T09:04:26.304Z,96.59
2016-11-09T09:09:22.776Z,96.59
2016-11-09T09:14:21.908Z,96.45
2016-11-09T09:19:18.063Z,95.22
2016-11-09T09:24:15.937Z,93.18
2016-11-09T09:29:12.189Z,93.37
2016-11-09T09:39:11.211Z,94.84
2016-11-09T09:44:07.307Z,94.08
2016-11-09T09:49:03.925Z,94.32
2016-11-09T09:54:00.736Z,93.65
2016-11-09T09:58:57.805Z,94.70
2016-11-09T10:03:54.148Z,93.65
2016-11-09T10:08:50.869Z,92.71
2016-11-09T10:13:46.776Z,93.46
2016-11-09T10:18:44.708Z,93.37
2016-11-09T10:23:40.987Z,93.75
2016-11-09T10:28:37.685Z,93.84
2016-11-09T10:33:35.468Z,93.75
2016-11-09T10:38:31.939Z,93.37
2016-11-09T10:43:28.778Z,93.61
2016-11-09T10:48:25.423Z,92.28
2016-11-09T10:53:22.090Z,91.42
2016-11-09T10:58:18.683Z,90.67
2016-11-09T11:03:14.946Z,91.24
2016-11-09T11:08:11.556Z,90.57
2016-11-09T11:13:07.935Z,90.57
2016-11-09T11:18:05.151Z,90.48
2016-11-09T11:23:01.393Z,90.29
2016-11-09T11:27:58.401Z,90.48
2016-11-09T11:32:54.370Z,90.10
2016-11-09T11:37:50.915Z,90.57
2016-11-09T11:42:48.496Z,90.76
2016-11-09T11:47:45.273Z,90.57
2016-11-09T11:52:41.995Z,91.05
2016-11-09T11:57:38.405Z,91.42
2016-11-09T12:02:36.315Z,90.95
2016-11-09T12:07:33.422Z,91.80
2016-11-09T12:12:29.971Z,92.09
2016-11-09T12:17:26.238Z,92.76
2016-11-09T12:22:22.971Z,92.18
2016-11-09T12:27:19.448Z,92.38
2016-11-09T12:32:16.100Z,91.99
2016-11-09T12:37:12.567Z,91.33
2016-11-09T12:42:09.303Z,91.52
2016-11-09T12:47:10.670Z,90.95
2016-11-09T12:52:06.705Z,91.80
2016-11-09T12:57:05.629Z,91.24
2016-11-09T13:02:01.364Z,91.80
2016-11-09T13:06:59.234Z,91.24
2016-11-09T13:11:55.925Z,91.33
2016-11-09T13:16:53.765Z,92.18
2016-11-09T13:21:50.053Z,92.76
2016-11-09T13:26:47.484Z,93.32
2016-11-09T13:31:44.822Z,92.18
2016-11-09T13:36:42.330Z,90.95
2016-11-09T13:41:38.441Z,91.71
2016-11-09T13:46:34.579Z,91.80
2016-11-09T13:51:31.014Z,91.80
2016-11-09T13:56:27.799Z,91.33
2016-11-09T14:01:24.373Z,92.47
2016-11-09T14:11:21.217Z,91.61
2016-11-09T14:16:17.812Z,92.57
2016-11-09T14:21:14.668Z,93.04
2016-11-09T14:26:12.392Z,92.76
2016-11-09T14:31:08.434Z,93.32
2016-11-09T14:36:04.904Z,94.18
2016-11-09T14:41:01.432Z,93.89
2016-11-09T14:46:00.532Z,94.56
2016-11-09T14:50:56.489Z,96.55
2016-11-09T14:55:52.803Z,97.64
2016-11-09T15:00:49.058Z,99.25
2016-11-09T15:05:46.855Z,99.99
2016-11-09T15:10:42.950Z,99.99
2016-11-09T15:15:39.391Z,99.99
2016-11-09T15:20:35.775Z,99.99
2016-11-09T15:25:32.675Z,99.99
2016-11-09T15:30:29.183Z,99.99
2016-11-09T15:35:25.468Z,99.99
2016-11-09T15:40:21.925Z,99.99
2016-11-09T15:45:18.274Z,99.99
2016-11-09T15:50:15.151Z,99.99
2016-11-09T15:55:11.250Z,99.99
2016-11-09T16:00:07.826Z,99.99
2016-11-09T16:05:04.108Z,99.99
2016-11-09T16:10:00.550Z,99.99
2016-11-09T16:14:57.598Z,99.99
2016-11-09T16:19:53.967Z,99.99
2016-11-09T16:24:50.602Z,99.99
2016-11-09T16:29:47.360Z,99.99
2016-11-09T16:34:43.182Z,99.99
2016-11-09T16:39:39.546Z,99.99
2016-11-09T16:44:35.813Z,99.99
2016-11-09T16:49:32.649Z,99.99
2016-11-09T16:54:30.166Z,99.99
2016-11-09T16:59:26.722Z,99.99
2016-11-09T17:04:23.104Z,99.99
2016-11-09T17:09:19.581Z,99.99
2016-11-09T17:14:15.885Z,99.99
2016-11-09T17:19:13.521Z,99.99
2016-11-09T17:24:09.635Z,99.99
2016-11-09T17:29:06.114Z,99.99
2016-11-09T17:34:03.085Z,99.99
2016-11-09T17:39:00.061Z,99.99
2016-11-09T17:43:56.507Z,99.99
2016-11-09T17:48:52.831Z,99.99
2016-11-09T17:53:49.172Z,99.99
2016-11-09T17:58:45.563Z,99.99
2016-11-09T18:03:41.796Z,99.99
2016-11-09T18:08:38.118Z,99.99
2016-11-09T18:13:35.283Z,99.99
2016-11-09T18:18:31.942Z,99.99
2016-11-09T18:23:28.302Z,99.99
2016-11-09T18:28:24.580Z,99.99
2016-11-09T18:33:22.005Z,99.99
2016-11-09T18:38:18.110Z,99.99
2016-11-09T18:43:14.123Z,99.99
2016-11-09T18:48:10.501Z,99.99
2016-11-09T18:53:07.263Z,99.99
2016-11-09T18:58:03.760Z,99.99
2016-11-09T19:03:00.627Z,99.99
2016-11-09T19:07:57.487Z,99.99
2016-11-09T19:12:53.825Z,99.99
2016-11-09T19:17:50.185Z,99.99
2016-11-09T19:22:46.454Z,99.99
2016-11-09T19:27:42.456Z,99.99
2016-11-09T19:32:38.649Z,99.99
2016-11-09T19:37:34.994Z,99.99
2016-11-09T19:42:31.482Z,99.99
2016-11-09T19:47:27.902Z,99.99
2016-11-09T19:52:24.134Z,99.99
2016-11-09T19:57:20.930Z,99.99
2016-11-09T20:02:17.411Z,99.99
2016-11-09T20:07:14.558Z,99.99
2016-11-09T20:12:11.584Z,99.99
2016-11-09T20:17:07.667Z,99.99
2016-11-09T20:22:04.129Z,99.99
2016-11-09T20:27:00.475Z,99.99
2016-11-09T20:31:57.449Z,99.99
2016-11-09T20:36:53.920Z,99.99
2016-11-09T20:41:50.555Z,99.99
2016-11-09T20:46:46.918Z,99.99
2016-11-09T20:51:43.347Z,99.99
2016-11-09T20:56:39.927Z,99.99
2016-11-09T21:01:37.330Z,99.99
2016-11-09T21:06:33.632Z,99.99
2016-11-09T21:11:30.133Z,99.99
2016-11-09T21:16:26.351Z,99.99
2016-11-09T21:21:23.868Z,99.99
2016-11-09T21:26:20.122Z,99.99
2016-11-09T21:31:16.534Z,99.99
2016-11-09T21:36:12.819Z,99.99
2016-11-09T21:41:09.267Z,99.99
2016-11-09T21:46:05.638Z,99.99
2016-11-09T21:51:02.203Z,99.99
2016-11-09T21:55:58.590Z,99.99
2016-11-09T22:00:54.932Z,99.99
2016-11-09T22:05:51.529Z,99.99
2016-11-09T22:10:47.679Z,99.99
2016-11-09T22:15:43.859Z,99.99
2016-11-09T22:20:40.244Z,99.99
2016-11-09T22:25:36.545Z,99.99
2016-11-09T22:30:32.837Z,99.99
2016-11-09T22:35:29.315Z,99.99
2016-11-09T22:40:25.617Z,99.99
2016-11-09T22:45:21.922Z,99.99
2016-11-09T22:50:18.277Z,99.99
2016-11-09T22:55:14.766Z,99.99
2016-11-09T23:00:11.108Z,99.99
2016-11-09T23:05:07.482Z,99.99
2016-11-09T23:10:03.799Z,99.99
2016-11-09T23:15:00.208Z,99.99
2016-11-09T23:19:56.716Z,99.99
2016-11-09T23:24:53.043Z,99.99
2016-11-09T23:29:49.393Z,99.99
2016-11-09T23:34:46.439Z,99.99
2016-11-09T23:39:43.629Z,99.99
2016-11-09T23:44:40.212Z,99.99
2016-11-09T23:49:36.583Z,99.99
2016-11-09T23:54:33.011Z,99.99
2016-11-09T23:59:29.379Z,99.99
